sensor_id;sensor_type;location;lat;lon;timestamp;pressure;altitude;pressure_sealevel;temperature;humidity
52719;BME280;38616;42.140;24.760;2023-01-15T00:01:30;100196.72;;;8.13;76.77
52719;BME280;38616;42.140;24.760;2023-01-15T00:03:58;100190.63;;;8.23;76.54
52719;BME280;38616;42.140;24.760;2023-01-15T00:06:24;100192.59;;;8.27;75.83
52719;BME280;38616;42.140;24.760;2023-01-15T00:08:50;100192.53;;;8.22;76.65
52719;BME280;38616;42.140;24.760;2023-01-15T00:11:16;100206.78;;;8.18;76.93
52719;BME280;38616;42.140;24.760;2023-01-15T00:13:42;100195.16;;;8.39;75.90
52719;BME280;38616;42.140;24.760;2023-01-15T00:16:10;100186.25;;;8.39;75.49
52719;BME280;38616;42.140;24.760;2023-01-15T00:18:36;100189.47;;;8.19;76.48
52719;BME280;38616;42.140;24.760;2023-01-15T00:21:04;100206.84;;;8.23;76.78
52719;BME280;38616;42.140;24.760;2023-01-15T00:23:30;100206.44;;;8.31;75.97
52719;BME280;38616;42.140;24.760;2023-01-15T00:26:16;100199.88;;;8.27;76.13
52719;BME280;38616;42.140;24.760;2023-01-15T00:29:00;100204.56;;;8.32;75.62
52719;BME280;38616;42.140;24.760;2023-01-15T00:31:27;100194.75;;;8.08;77.31
52719;BME280;38616;42.140;24.760;2023-01-15T00:33:53;100195.72;;;8.19;76.28
52719;BME280;38616;42.140;24.760;2023-01-15T00:36:18;100203.78;;;8.14;76.12
52719;BME280;38616;42.140;24.760;2023-01-15T00:38:43;100195.75;;;8.41;75.93
52719;BME280;38616;42.140;24.760;2023-01-15T00:41:09;100196.59;;;8.25;76.22
52719;BME280;38616;42.140;24.760;2023-01-15T00:43:34;100196.50;;;7.97;76.84
52719;BME280;38616;42.140;24.760;2023-01-15T00:46:00;100201.72;;;8.21;77.30
52719;BME280;38616;42.140;24.760;2023-01-15T00:48:25;100194.31;;;8.17;77.09
52719;BME280;38616;42.140;24.760;2023-01-15T00:50:51;100192.13;;;8.13;76.81
52719;BME280;38616;42.140;24.760;2023-01-15T00:53:16;100191.09;;;8.37;76.57
52719;BME280;38616;42.140;24.760;2023-01-15T00:55:42;100190.41;;;8.47;75.07
52719;BME280;38616;42.140;24.760;2023-01-15T00:58:08;100188.25;;;8.26;75.97
52719;BME280;38616;42.140;24.760;2023-01-15T01:00:33;100192.59;;;8.27;75.93
52719;BME280;38616;42.140;24.760;2023-01-15T01:02:59;100189.75;;;8.39;75.17
52719;BME280;38616;42.140;24.760;2023-01-15T01:05:24;100187.38;;;8.04;76.51
52719;BME280;38616;42.140;24.760;2023-01-15T01:07:49;100186.41;;;8.10;76.92
52719;BME280;38616;42.140;24.760;2023-01-15T01:10:15;100193.78;;;7.97;77.47
52719;BME280;38616;42.140;24.760;2023-01-15T01:12:41;100185.00;;;8.07;76.17
52719;BME280;38616;42.140;24.760;2023-01-15T01:15:07;100189.25;;;8.20;77.20
52719;BME280;38616;42.140;24.760;2023-01-15T01:17:36;100190.63;;;8.23;76.62
52719;BME280;38616;42.140;24.760;2023-01-15T01:20:02;100180.38;;;8.25;75.76
52719;BME280;38616;42.140;24.760;2023-01-15T01:22:27;100180.06;;;8.04;76.83
52719;BME280;38616;42.140;24.760;2023-01-15T01:24:53;100185.69;;;8.20;75.63
52719;BME280;38616;42.140;24.760;2023-01-15T01:27:18;100184.91;;;8.02;76.69
52719;BME280;38616;42.140;24.760;2023-01-15T01:29:43;100185.47;;;8.21;75.85
52719;BME280;38616;42.140;24.760;2023-01-15T01:32:09;100176.09;;;8.29;75.29
52719;BME280;38616;42.140;24.760;2023-01-15T01:34:34;100184.25;;;8.12;75.49
52719;BME280;38616;42.140;24.760;2023-01-15T01:36:59;100171.75;;;7.89;75.55
52719;BME280;38616;42.140;24.760;2023-01-15T01:39:25;100177.19;;;7.89;76.40
52719;BME280;38616;42.140;24.760;2023-01-15T01:41:50;100176.63;;;8.09;76.45
52719;BME280;38616;42.140;24.760;2023-01-15T01:46:57;100181.28;;;8.13;76.86
52719;BME280;38616;42.140;24.760;2023-01-15T01:49:24;100181.56;;;8.12;76.23
52719;BME280;38616;42.140;24.760;2023-01-15T01:51:57;100178.34;;;8.15;76.20
52719;BME280;38616;42.140;24.760;2023-01-15T01:54:24;100181.63;;;8.39;76.05
52719;BME280;38616;42.140;24.760;2023-01-15T01:56:51;100175.72;;;8.42;75.37
52719;BME280;38616;42.140;24.760;2023-01-15T01:59:18;100169.03;;;8.06;76.03
52719;BME280;38616;42.140;24.760;2023-01-15T02:01:45;100174.56;;;8.16;76.70
52719;BME280;38616;42.140;24.760;2023-01-15T02:04:12;100178.13;;;8.39;75.62
52719;BME280;38616;42.140;24.760;2023-01-15T02:06:40;100175.16;;;8.40;75.40
52719;BME280;38616;42.140;24.760;2023-01-15T02:09:07;100174.97;;;7.86;76.73
52719;BME280;38616;42.140;24.760;2023-01-15T02:11:33;100174.66;;;7.65;77.40
52719;BME280;38616;42.140;24.760;2023-01-15T02:14:22;100185.91;;;7.96;77.04
52719;BME280;38616;42.140;24.760;2023-01-15T02:17:13;100166.13;;;7.73;77.59
52719;BME280;38616;42.140;24.760;2023-01-15T02:19:59;100168.19;;;8.05;77.35
52719;BME280;38616;42.140;24.760;2023-01-15T02:25:39;100171.31;;;7.97;77.36
52719;BME280;38616;42.140;24.760;2023-01-15T02:28:23;100164.34;;;8.01;76.79
52719;BME280;38616;42.140;24.760;2023-01-15T02:31:11;100173.75;;;8.16;76.12
52719;BME280;38616;42.140;24.760;2023-01-15T02:33:45;100172.72;;;7.99;76.66
52719;BME280;38616;42.140;24.760;2023-01-15T02:36:14;100164.25;;;7.96;76.69
52719;BME280;38616;42.140;24.760;2023-01-15T02:38:45;100164.75;;;8.10;75.94
52719;BME280;38616;42.140;24.760;2023-01-15T02:41:12;100159.84;;;8.07;76.08
52719;BME280;38616;42.140;24.760;2023-01-15T02:43:45;100161.13;;;8.04;76.35
52719;BME280;38616;42.140;24.760;2023-01-15T02:46:13;100165.97;;;8.02;76.24
52719;BME280;38616;42.140;24.760;2023-01-15T02:48:40;100168.75;;;8.07;76.37
52719;BME280;38616;42.140;24.760;2023-01-15T02:51:12;100161.63;;;8.18;76.11
52719;BME280;38616;42.140;24.760;2023-01-15T02:53:42;100161.63;;;8.01;76.39
52719;BME280;38616;42.140;24.760;2023-01-15T02:56:13;100154.31;;;7.79;77.19
52719;BME280;38616;42.140;24.760;2023-01-15T02:58:41;100164.44;;;7.89;77.08
52719;BME280;38616;42.140;24.760;2023-01-15T03:01:14;100162.44;;;7.79;77.25
52719;BME280;38616;42.140;24.760;2023-01-15T03:06:42;100160.22;;;7.76;77.29
52719;BME280;38616;42.140;24.760;2023-01-15T03:09:08;100161.47;;;8.08;76.70
52719;BME280;38616;42.140;24.760;2023-01-15T03:11:37;100165.41;;;8.00;76.28
52719;BME280;38616;42.140;24.760;2023-01-15T03:14:22;100170.34;;;7.86;76.70
52719;BME280;38616;42.140;24.760;2023-01-15T03:17:01;100162.13;;;7.98;76.58
52719;BME280;38616;42.140;24.760;2023-01-15T03:19:42;100161.41;;;8.03;76.44
52719;BME280;38616;42.140;24.760;2023-01-15T03:22:29;100162.34;;;7.74;76.35
52719;BME280;38616;42.140;24.760;2023-01-15T03:25:01;100165.22;;;7.67;77.47
52719;BME280;38616;42.140;24.760;2023-01-15T03:27:27;100161.84;;;7.77;76.88
52719;BME280;38616;42.140;24.760;2023-01-15T03:29:58;100162.34;;;7.57;77.43
52719;BME280;38616;42.140;24.760;2023-01-15T03:32:25;100159.38;;;7.76;77.69
52719;BME280;38616;42.140;24.760;2023-01-15T03:34:54;100157.50;;;7.76;77.11
52719;BME280;38616;42.140;24.760;2023-01-15T03:37:21;100155.13;;;7.80;77.20
52719;BME280;38616;42.140;24.760;2023-01-15T03:39:49;100148.97;;;7.67;77.34
52719;BME280;38616;42.140;24.760;2023-01-15T03:42:49;100150.19;;;7.94;77.40
52719;BME280;38616;42.140;24.760;2023-01-15T03:45:40;100151.69;;;7.84;76.41
52719;BME280;38616;42.140;24.760;2023-01-15T03:50:47;100153.56;;;7.84;76.58
52719;BME280;38616;42.140;24.760;2023-01-15T03:53:23;100156.16;;;7.96;75.78
52719;BME280;38616;42.140;24.760;2023-01-15T03:56:00;100151.28;;;7.76;76.43
52719;BME280;38616;42.140;24.760;2023-01-15T03:58:31;100158.25;;;7.54;77.31
52719;BME280;38616;42.140;24.760;2023-01-15T04:01:00;100164.84;;;7.98;76.83
52719;BME280;38616;42.140;24.760;2023-01-15T04:03:28;100166.25;;;8.01;76.31
52719;BME280;38616;42.140;24.760;2023-01-15T04:05:56;100169.81;;;8.06;75.75
52719;BME280;38616;42.140;24.760;2023-01-15T04:08:25;100167.22;;;7.94;75.92
52719;BME280;38616;42.140;24.760;2023-01-15T04:10:54;100160.06;;;8.05;75.26
52719;BME280;38616;42.140;24.760;2023-01-15T04:13:20;100160.97;;;8.11;75.29
52719;BME280;38616;42.140;24.760;2023-01-15T04:15:45;100170.34;;;7.86;75.66
52719;BME280;38616;42.140;24.760;2023-01-15T04:18:11;100175.47;;;7.82;76.51
52719;BME280;38616;42.140;24.760;2023-01-15T04:20:36;100171.84;;;7.94;75.70
52719;BME280;38616;42.140;24.760;2023-01-15T04:23:02;100164.72;;;7.88;76.33
52719;BME280;38616;42.140;24.760;2023-01-15T04:25:27;100164.00;;;7.75;76.63
52719;BME280;38616;42.140;24.760;2023-01-15T04:27:54;100177.09;;;7.83;76.18
52719;BME280;38616;42.140;24.760;2023-01-15T04:30:20;100172.69;;;7.77;76.15
52719;BME280;38616;42.140;24.760;2023-01-15T04:32:49;100178.72;;;7.67;77.04
52719;BME280;38616;42.140;24.760;2023-01-15T04:35:15;100179.72;;;7.61;77.57
52719;BME280;38616;42.140;24.760;2023-01-15T04:37:41;100181.50;;;7.73;77.31
52719;BME280;38616;42.140;24.760;2023-01-15T04:40:07;100184.88;;;7.63;76.72
52719;BME280;38616;42.140;24.760;2023-01-15T04:42:33;100176.81;;;8.02;75.55
52719;BME280;38616;42.140;24.760;2023-01-15T04:45:17;100188.59;;;8.13;74.67
52719;BME280;38616;42.140;24.760;2023-01-15T04:47:42;100182.78;;;8.04;74.59
52719;BME280;38616;42.140;24.760;2023-01-15T04:50:08;100183.69;;;8.10;75.10
52719;BME280;38616;42.140;24.760;2023-01-15T04:52:34;100182.97;;;7.97;75.29
52719;BME280;38616;42.140;24.760;2023-01-15T04:55:00;100183.66;;;7.88;76.17
52719;BME280;38616;42.140;24.760;2023-01-15T04:57:25;100194.56;;;7.59;76.28
52719;BME280;38616;42.140;24.760;2023-01-15T04:59:51;100186.34;;;7.88;75.96
52719;BME280;38616;42.140;24.760;2023-01-15T05:02:17;100190.53;;;7.78;75.77
52719;BME280;38616;42.140;24.760;2023-01-15T05:04:42;100192.41;;;7.78;75.67
52719;BME280;38616;42.140;24.760;2023-01-15T05:07:08;100197.44;;;7.69;76.60
52719;BME280;38616;42.140;24.760;2023-01-15T05:09:34;100185.78;;;7.51;76.25
52719;BME280;38616;42.140;24.760;2023-01-15T05:11:59;100189.22;;;7.64;76.17
52719;BME280;38616;42.140;24.760;2023-01-15T05:14:44;100202.31;;;7.55;76.74
52719;BME280;38616;42.140;24.760;2023-01-15T05:17:09;100192.34;;;7.73;77.09
52719;BME280;38616;42.140;24.760;2023-01-15T05:19:34;100197.44;;;7.69;76.33
52719;BME280;38616;42.140;24.760;2023-01-15T05:22:00;100196.94;;;7.72;75.99
52719;BME280;38616;42.140;24.760;2023-01-15T05:24:25;100200.22;;;7.74;75.89
52719;BME280;38616;42.140;24.760;2023-01-15T05:26:50;100198.72;;;7.66;75.90
52719;BME280;38616;42.140;24.760;2023-01-15T05:29:16;100197.66;;;7.84;75.10
52719;BME280;38616;42.140;24.760;2023-01-15T05:31:41;100205.19;;;7.48;76.32
52719;BME280;38616;42.140;24.760;2023-01-15T05:34:10;100206.03;;;7.66;76.23
52719;BME280;38616;42.140;24.760;2023-01-15T05:36:35;100207.56;;;7.96;75.89
52719;BME280;38616;42.140;24.760;2023-01-15T05:39:02;100207.16;;;7.87;75.36
52719;BME280;38616;42.140;24.760;2023-01-15T05:41:28;100213.41;;;7.88;74.83
52719;BME280;38616;42.140;24.760;2023-01-15T05:44:13;100204.28;;;7.77;74.98
52719;BME280;38616;42.140;24.760;2023-01-15T05:46:40;100206.59;;;7.68;75.92
52719;BME280;38616;42.140;24.760;2023-01-15T05:49:09;100209.72;;;7.60;75.89
52719;BME280;38616;42.140;24.760;2023-01-15T05:51:35;100210.88;;;7.47;76.50
52719;BME280;38616;42.140;24.760;2023-01-15T05:54:03;100203.63;;;7.69;75.37
52719;BME280;38616;42.140;24.760;2023-01-15T05:56:28;100211.09;;;7.62;75.38
52719;BME280;38616;42.140;24.760;2023-01-15T05:58:54;100203.38;;;7.37;75.94
52719;BME280;38616;42.140;24.760;2023-01-15T06:01:20;100215.34;;;7.41;76.18
52719;BME280;38616;42.140;24.760;2023-01-15T06:03:45;100220.44;;;7.37;75.85
52719;BME280;38616;42.140;24.760;2023-01-15T06:06:14;100212.94;;;7.28;76.46
52719;BME280;38616;42.140;24.760;2023-01-15T06:08:40;100217.19;;;7.23;76.82
52719;BME280;38616;42.140;24.760;2023-01-15T06:11:05;100213.81;;;7.16;76.70
52719;BME280;38616;42.140;24.760;2023-01-15T06:13:32;100216.22;;;7.13;76.49
52719;BME280;38616;42.140;24.760;2023-01-15T06:16:01;100219.31;;;7.21;76.45
52719;BME280;38616;42.140;24.760;2023-01-15T06:18:27;100208.03;;;7.24;76.43
52719;BME280;38616;42.140;24.760;2023-01-15T06:20:52;100215.28;;;7.53;75.97
52719;BME280;38616;42.140;24.760;2023-01-15T06:23:18;100208.88;;;7.59;76.79
52719;BME280;38616;42.140;24.760;2023-01-15T06:25:43;100208.00;;;7.71;77.18
52719;BME280;38616;42.140;24.760;2023-01-15T06:28:09;100205.38;;;7.93;74.90
52719;BME280;38616;42.140;24.760;2023-01-15T06:30:37;100202.13;;;8.13;75.21
52719;BME280;38616;42.140;24.760;2023-01-15T06:33:03;100212.78;;;8.20;74.29
52719;BME280;38616;42.140;24.760;2023-01-15T06:35:29;100213.16;;;6.80;78.53
52719;BME280;38616;42.140;24.760;2023-01-15T06:37:54;100221.47;;;5.24;84.65
52719;BME280;38616;42.140;24.760;2023-01-15T06:40:20;100226.00;;;4.62;85.03
52719;BME280;38616;42.140;24.760;2023-01-15T06:42:46;100229.25;;;4.08;85.66
52719;BME280;38616;42.140;24.760;2023-01-15T06:45:36;100232.06;;;4.39;85.29
52719;BME280;38616;42.140;24.760;2023-01-15T06:48:21;100236.16;;;4.60;82.99
52719;BME280;38616;42.140;24.760;2023-01-15T06:50:46;100236.69;;;4.32;82.63
52719;BME280;38616;42.140;24.760;2023-01-15T06:53:12;100228.78;;;4.37;82.79
52719;BME280;38616;42.140;24.760;2023-01-15T06:55:38;100230.78;;;4.60;83.86
52719;BME280;38616;42.140;24.760;2023-01-15T06:58:03;100234.66;;;4.83;83.95
52719;BME280;38616;42.140;24.760;2023-01-15T07:00:29;100229.81;;;4.36;83.61
52719;BME280;38616;42.140;24.760;2023-01-15T07:02:54;100227.97;;;5.46;85.67
52719;BME280;38616;42.140;24.760;2023-01-15T07:05:20;100220.34;;;6.10;84.15
52719;BME280;38616;42.140;24.760;2023-01-15T07:07:45;100230.63;;;6.36;82.11
52719;BME280;38616;42.140;24.760;2023-01-15T07:10:10;100235.09;;;6.31;82.34
52719;BME280;38616;42.140;24.760;2023-01-15T07:12:36;100229.53;;;6.61;81.61
52719;BME280;38616;42.140;24.760;2023-01-15T07:15:01;100239.75;;;6.59;80.81
52719;BME280;38616;42.140;24.760;2023-01-15T07:17:27;100238.56;;;6.55;81.16
52719;BME280;38616;42.140;24.760;2023-01-15T07:19:52;100233.72;;;6.69;81.20
52719;BME280;38616;42.140;24.760;2023-01-15T07:22:17;100231.97;;;6.75;79.70
52719;BME280;38616;42.140;24.760;2023-01-15T07:24:43;100238.47;;;7.03;78.92
52719;BME280;38616;42.140;24.760;2023-01-15T07:27:08;100221.25;;;7.09;78.21
52719;BME280;38616;42.140;24.760;2023-01-15T07:29:34;100230.84;;;7.00;78.07
52719;BME280;38616;42.140;24.760;2023-01-15T07:31:59;100244.84;;;4.62;84.77
52719;BME280;38616;42.140;24.760;2023-01-15T07:34:24;100244.25;;;5.52;92.68
52719;BME280;38616;42.140;24.760;2023-01-15T07:36:50;100251.25;;;4.42;87.64
52719;BME280;38616;42.140;24.760;2023-01-15T07:39:15;100249.09;;;4.51;85.82
52719;BME280;38616;42.140;24.760;2023-01-15T07:41:41;100251.94;;;4.56;87.22
52719;BME280;38616;42.140;24.760;2023-01-15T07:44:25;100250.81;;;4.46;83.24
52719;BME280;38616;42.140;24.760;2023-01-15T07:47:18;100246.38;;;5.50;87.25
52719;BME280;38616;42.140;24.760;2023-01-15T07:50:05;100244.00;;;6.31;84.06
52719;BME280;38616;42.140;24.760;2023-01-15T07:52:30;100243.19;;;6.84;82.43
52719;BME280;38616;42.140;24.760;2023-01-15T07:54:56;100237.72;;;7.36;79.01
52719;BME280;38616;42.140;24.760;2023-01-15T07:57:21;100243.94;;;7.54;78.37
52719;BME280;38616;42.140;24.760;2023-01-15T07:59:48;100246.94;;;7.87;77.02
52719;BME280;38616;42.140;24.760;2023-01-15T08:02:14;100249.72;;;7.92;76.14
52719;BME280;38616;42.140;24.760;2023-01-15T08:04:41;100250.28;;;7.94;75.35
52719;BME280;38616;42.140;24.760;2023-01-15T08:07:07;100250.91;;;8.01;75.44
52719;BME280;38616;42.140;24.760;2023-01-15T08:09:32;100255.94;;;7.92;74.04
52719;BME280;38616;42.140;24.760;2023-01-15T08:11:59;100262.59;;;7.84;74.44
52719;BME280;38616;42.140;24.760;2023-01-15T08:14:43;100263.94;;;7.53;76.31
52719;BME280;38616;42.140;24.760;2023-01-15T08:17:27;100270.59;;;5.07;83.09
52719;BME280;38616;42.140;24.760;2023-01-15T08:19:53;100257.59;;;5.46;84.50
52719;BME280;38616;42.140;24.760;2023-01-15T08:22:18;100258.59;;;5.22;79.75
52719;BME280;38616;42.140;24.760;2023-01-15T08:24:44;100266.13;;;4.82;80.06
52719;BME280;38616;42.140;24.760;2023-01-15T08:27:09;100258.66;;;4.84;81.61
52719;BME280;38616;42.140;24.760;2023-01-15T08:29:36;100262.59;;;5.31;83.50
52719;BME280;38616;42.140;24.760;2023-01-15T08:32:01;100260.53;;;6.47;82.66
52719;BME280;38616;42.140;24.760;2023-01-15T08:34:26;100252.63;;;7.10;79.69
52719;BME280;38616;42.140;24.760;2023-01-15T08:36:52;100253.34;;;7.34;78.32
52719;BME280;38616;42.140;24.760;2023-01-15T08:39:23;100252.53;;;7.51;77.38
52719;BME280;38616;42.140;24.760;2023-01-15T08:41:49;100249.38;;;7.71;76.76
52719;BME280;38616;42.140;24.760;2023-01-15T08:44:14;100237.16;;;7.68;76.29
52719;BME280;38616;42.140;24.760;2023-01-15T08:46:41;100239.22;;;7.78;76.03
52719;BME280;38616;42.140;24.760;2023-01-15T08:49:09;100247.53;;;8.28;74.66
52719;BME280;38616;42.140;24.760;2023-01-15T08:51:34;100244.53;;;8.07;74.09
52719;BME280;38616;42.140;24.760;2023-01-15T08:53:59;100239.28;;;8.01;73.71
52719;BME280;38616;42.140;24.760;2023-01-15T08:56:25;100243.25;;;7.93;74.29
52719;BME280;38616;42.140;24.760;2023-01-15T08:58:50;100239.34;;;6.79;76.60
52719;BME280;38616;42.140;24.760;2023-01-15T09:01:16;100255.75;;;6.01;82.16
52719;BME280;38616;42.140;24.760;2023-01-15T09:03:42;100248.78;;;5.39;83.27
52719;BME280;38616;42.140;24.760;2023-01-15T09:06:07;100255.75;;;5.47;84.97
52719;BME280;38616;42.140;24.760;2023-01-15T09:08:33;100245.13;;;5.64;84.89
52719;BME280;38616;42.140;24.760;2023-01-15T09:11:01;100243.25;;;6.72;82.71
52719;BME280;38616;42.140;24.760;2023-01-15T09:13:28;100243.31;;;7.47;79.20
52719;BME280;38616;42.140;24.760;2023-01-15T09:16:00;100236.09;;;7.69;76.86
52719;BME280;38616;42.140;24.760;2023-01-15T09:18:27;100239.22;;;7.78;75.46
52719;BME280;38616;42.140;24.760;2023-01-15T09:20:52;100233.03;;;8.00;75.45
52719;BME280;38616;42.140;24.760;2023-01-15T09:23:17;100223.75;;;8.30;73.60
52719;BME280;38616;42.140;24.760;2023-01-15T09:28:20;100223.25;;;8.33;72.59
52719;BME280;38616;42.140;24.760;2023-01-15T09:30:46;100222.47;;;8.55;76.51
52719;BME280;38616;42.140;24.760;2023-01-15T09:33:12;100215.06;;;8.67;74.42
52719;BME280;38616;42.140;24.760;2023-01-15T09:35:37;100214.19;;;8.89;73.83
52719;BME280;38616;42.140;24.760;2023-01-15T09:38:03;100203.00;;;8.80;70.75
52719;BME280;38616;42.140;24.760;2023-01-15T09:40:49;100212.47;;;8.78;70.64
52719;BME280;38616;42.140;24.760;2023-01-15T09:46:16;100205.47;;;8.60;71.17
52719;BME280;38616;42.140;24.760;2023-01-15T09:56:46;100199.69;;;9.00;69.22
52719;BME280;38616;42.140;24.760;2023-01-15T09:59:32;100196.03;;;8.23;70.04
52719;BME280;38616;42.140;24.760;2023-01-15T10:02:02;100193.00;;;8.58;71.29
52719;BME280;38616;42.140;24.760;2023-01-15T10:04:44;100196.78;;;8.80;70.48
52719;BME280;38616;42.140;24.760;2023-01-15T10:07:18;100176.88;;;8.96;72.15
52719;BME280;38616;42.140;24.760;2023-01-15T10:09:54;100180.88;;;9.16;70.48
52719;BME280;38616;42.140;24.760;2023-01-15T10:12:27;100179.28;;;9.20;70.32
52719;BME280;38616;42.140;24.760;2023-01-15T10:17:54;100168.81;;;8.74;69.78
52719;BME280;38616;42.140;24.760;2023-01-15T10:26:34;100154.00;;;8.82;69.08
52719;BME280;38616;42.140;24.760;2023-01-15T10:42:58;100138.69;;;5.79;78.54
52719;BME280;38616;42.140;24.760;2023-01-15T10:45:29;100129.69;;;6.09;78.46
52719;BME280;38616;42.140;24.760;2023-01-15T10:48:09;100134.72;;;5.69;76.86
52719;BME280;38616;42.140;24.760;2023-01-15T10:50:36;100132.84;;;5.58;76.89
52719;BME280;38616;42.140;24.760;2023-01-15T10:55:49;100119.41;;;6.92;79.22
52719;BME280;38616;42.140;24.760;2023-01-15T10:58:38;100109.94;;;7.41;76.88
52719;BME280;38616;42.140;24.760;2023-01-15T11:01:14;100099.75;;;7.48;76.19
52719;BME280;38616;42.140;24.760;2023-01-15T11:03:42;100102.16;;;8.06;74.64
52719;BME280;38616;42.140;24.760;2023-01-15T11:06:20;100101.22;;;8.18;73.43
52719;BME280;38616;42.140;24.760;2023-01-15T11:08:52;100094.56;;;8.48;72.23
52719;BME280;38616;42.140;24.760;2023-01-15T11:11:37;100089.53;;;8.56;71.58
52719;BME280;38616;42.140;24.760;2023-01-15T11:14:41;100090.16;;;8.41;70.62
52719;BME280;38616;42.140;24.760;2023-01-15T11:20:28;100081.59;;;8.50;70.49
52719;BME280;38616;42.140;24.760;2023-01-15T11:23:09;100094.28;;;7.09;74.21
52719;BME280;38616;42.140;24.760;2023-01-15T11:25:35;100092.75;;;6.38;79.40
52719;BME280;38616;42.140;24.760;2023-01-15T11:28:05;100081.16;;;5.61;79.45
52719;BME280;38616;42.140;24.760;2023-01-15T11:30:36;100077.44;;;6.27;81.07
52719;BME280;38616;42.140;24.760;2023-01-15T11:33:04;100072.34;;;5.77;75.75
52719;BME280;38616;42.140;24.760;2023-01-15T11:35:31;100076.59;;;5.50;77.21
52719;BME280;38616;42.140;24.760;2023-01-15T11:38:13;100074.78;;;5.91;78.39
52719;BME280;38616;42.140;24.760;2023-01-15T11:40:39;100071.03;;;6.04;79.81
52719;BME280;38616;42.140;24.760;2023-01-15T11:43:23;100045.50;;;6.99;78.40
52719;BME280;38616;42.140;24.760;2023-01-15T11:46:30;100055.66;;;7.65;75.48
52719;BME280;38616;42.140;24.760;2023-01-15T11:49:20;100050.25;;;7.87;74.78
52719;BME280;38616;42.140;24.760;2023-01-15T11:52:07;100059.38;;;8.03;72.89
52719;BME280;38616;42.140;24.760;2023-01-15T11:54:45;100046.63;;;7.76;73.83
52719;BME280;38616;42.140;24.760;2023-01-15T11:57:31;100054.44;;;7.95;73.20
52719;BME280;38616;42.140;24.760;2023-01-15T11:59:59;100046.94;;;7.80;73.22
52719;BME280;38616;42.140;24.760;2023-01-15T12:02:36;100043.78;;;7.66;73.83
52719;BME280;38616;42.140;24.760;2023-01-15T12:05:05;100035.19;;;7.52;74.43
52719;BME280;38616;42.140;24.760;2023-01-15T12:07:31;100030.75;;;7.85;73.58
52719;BME280;38616;42.140;24.760;2023-01-15T12:10:15;100033.88;;;6.35;77.38
52719;BME280;38616;42.140;24.760;2023-01-15T12:16:21;100036.19;;;5.26;78.97
52719;BME280;38616;42.140;24.760;2023-01-15T12:18:42;100028.50;;;5.82;82.22
52719;BME280;38616;42.140;24.760;2023-01-15T12:24:36;100010.22;;;6.88;79.29
52719;BME280;38616;42.140;24.760;2023-01-15T12:29:52;100005.91;;;7.66;76.14
52719;BME280;38616;42.140;24.760;2023-01-15T12:32:32;100004.34;;;7.92;73.61
52719;BME280;38616;42.140;24.760;2023-01-15T12:35:06;99998.22;;;8.02;74.24
52719;BME280;38616;42.140;24.760;2023-01-15T12:37:45;99993.94;;;8.06;73.73
52719;BME280;38616;42.140;24.760;2023-01-15T12:42:41;99990.88;;;8.25;72.57
52719;BME280;38616;42.140;24.760;2023-01-15T12:45:30;99998.25;;;7.80;73.54
52719;BME280;38616;42.140;24.760;2023-01-15T12:50:53;99993.53;;;5.99;78.54
52719;BME280;38616;42.140;24.760;2023-01-15T12:53:51;99993.53;;;6.28;83.82
52719;BME280;38616;42.140;24.760;2023-01-15T12:56:26;99992.38;;;5.30;82.18
52719;BME280;38616;42.140;24.760;2023-01-15T12:59:06;99992.78;;;5.63;81.19
52719;BME280;38616;42.140;24.760;2023-01-15T13:07:15;99981.03;;;7.24;78.74
52719;BME280;38616;42.140;24.760;2023-01-15T13:12:21;99982.66;;;7.65;75.20
52719;BME280;38616;42.140;24.760;2023-01-15T13:14:47;99985.09;;;7.89;74.43
52719;BME280;38616;42.140;24.760;2023-01-15T13:17:27;99980.41;;;8.06;73.72
52719;BME280;38616;42.140;24.760;2023-01-15T13:20:00;99980.06;;;8.52;72.81
52719;BME280;38616;42.140;24.760;2023-01-15T13:22:30;99976.34;;;8.31;72.76
52719;BME280;38616;42.140;24.760;2023-01-15T13:30:31;99980.81;;;7.93;73.16
52719;BME280;38616;42.140;24.760;2023-01-15T13:35:44;99987.00;;;5.18;80.39
52719;BME280;38616;42.140;24.760;2023-01-15T13:38:19;99973.59;;;5.59;79.93
52719;BME280;38616;42.140;24.760;2023-01-15T13:40:48;99983.59;;;5.76;78.83
52719;BME280;38616;42.140;24.760;2023-01-15T13:43:31;99979.66;;;6.36;80.45
52719;BME280;38616;42.140;24.760;2023-01-15T13:45:58;99976.16;;;7.04;77.97
52719;BME280;38616;42.140;24.760;2023-01-15T13:48:33;99970.75;;;7.66;75.58
52719;BME280;38616;42.140;24.760;2023-01-15T13:51:02;99963.81;;;7.97;74.09
52719;BME280;38616;42.140;24.760;2023-01-15T13:53:33;99967.94;;;8.05;73.40
52719;BME280;38616;42.140;24.760;2023-01-15T13:56:11;99974.03;;;7.68;73.86
52719;BME280;38616;42.140;24.760;2023-01-15T13:59:00;99969.25;;;7.75;74.59
52719;BME280;38616;42.140;24.760;2023-01-15T14:03:58;99952.66;;;7.89;74.10
52719;BME280;38616;42.140;24.760;2023-01-15T14:06:38;99954.47;;;7.83;73.72
52719;BME280;38616;42.140;24.760;2023-01-15T14:09:05;99956.53;;;8.25;72.37
52719;BME280;38616;42.140;24.760;2023-01-15T14:25:37;99953.88;;;6.29;81.63
52719;BME280;38616;42.140;24.760;2023-01-15T14:28:31;99946.75;;;7.08;78.80
52719;BME280;38616;42.140;24.760;2023-01-15T14:34:17;99951.66;;;7.50;74.99
52719;BME280;38616;42.140;24.760;2023-01-15T14:41:56;99955.72;;;7.53;75.05
52719;BME280;38616;42.140;24.760;2023-01-15T14:44:42;99952.72;;;7.49;74.56
52719;BME280;38616;42.140;24.760;2023-01-15T14:47:20;99957.47;;;7.20;76.53
52719;BME280;38616;42.140;24.760;2023-01-15T14:50:42;99960.47;;;7.23;75.31
52719;BME280;38616;42.140;24.760;2023-01-15T14:52:44;99957.06;;;7.11;75.83
52719;BME280;38616;42.140;24.760;2023-01-15T14:55:11;99961.94;;;5.30;80.95
52719;BME280;38616;42.140;24.760;2023-01-15T14:57:38;99963.41;;;5.50;83.38